sensor_id;sensor_type;location;lat;lon;timestamp;temperature;humidity
65048;DHT22;52089;51.362;-2.384;2022-10-31T00:00:43;13.30;99.90
65048;DHT22;52089;51.362;-2.384;2022-10-31T00:04:24;13.30;99.90
65048;DHT22;52089;51.362;-2.384;2022-10-31T00:08:06;13.30;99.90
65048;DHT22;52089;51.362;-2.384;2022-10-31T00:11:48;13.30;99.90
65048;DHT22;52089;51.362;-2.384;2022-10-31T00:15:30;13.30;99.90
65048;DHT22;52089;51.362;-2.384;2022-10-31T00:19:11;13.40;99.90
65048;DHT22;52089;51.362;-2.384;2022-10-31T00:22:53;13.40;99.90
65048;DHT22;52089;51.362;-2.384;2022-10-31T00:26:35;13.40;99.90
65048;DHT22;52089;51.362;-2.384;2022-10-31T00:30:17;13.40;99.90
65048;DHT22;52089;51.362;-2.384;2022-10-31T00:33:58;13.30;99.90
65048;DHT22;52089;51.362;-2.384;2022-10-31T00:37:40;13.30;99.90
65048;DHT22;52089;51.362;-2.384;2022-10-31T00:41:22;13.20;99.90
65048;DHT22;52089;51.362;-2.384;2022-10-31T00:45:04;13.10;99.90
65048;DHT22;52089;51.362;-2.384;2022-10-31T00:48:45;13.00;99.90
65048;DHT22;52089;51.362;-2.384;2022-10-31T00:52:27;13.00;99.90
65048;DHT22;52089;51.362;-2.384;2022-10-31T00:56:09;12.90;99.90
65048;DHT22;52089;51.362;-2.384;2022-10-31T00:59:51;12.90;99.90
65048;DHT22;52089;51.362;-2.384;2022-10-31T01:03:33;12.80;99.90
65048;DHT22;52089;51.362;-2.384;2022-10-31T01:07:15;12.80;99.90
65048;DHT22;52089;51.362;-2.384;2022-10-31T01:11:10;12.80;99.90
65048;DHT22;52089;51.362;-2.384;2022-10-31T01:14:52;12.70;99.90
65048;DHT22;52089;51.362;-2.384;2022-10-31T01:18:34;12.70;99.90
65048;DHT22;52089;51.362;-2.384;2022-10-31T01:22:16;12.70;99.90
65048;DHT22;52089;51.362;-2.384;2022-10-31T01:26:04;12.70;99.90
65048;DHT22;52089;51.362;-2.384;2022-10-31T01:29:46;12.70;99.90
65048;DHT22;52089;51.362;-2.384;2022-10-31T01:33:28;12.70;99.90
65048;DHT22;52089;51.362;-2.384;2022-10-31T01:37:10;12.70;99.90
65048;DHT22;52089;51.362;-2.384;2022-10-31T01:40:52;12.70;99.90
65048;DHT22;52089;51.362;-2.384;2022-10-31T01:48:18;12.80;99.90
65048;DHT22;52089;51.362;-2.384;2022-10-31T01:52:09;12.80;99.90
65048;DHT22;52089;51.362;-2.384;2022-10-31T01:55:52;12.80;99.90
65048;DHT22;52089;51.362;-2.384;2022-10-31T01:59:38;12.70;99.90
65048;DHT22;52089;51.362;-2.384;2022-10-31T02:03:22;12.70;99.90
65048;DHT22;52089;51.362;-2.384;2022-10-31T02:07:09;12.80;99.90
65048;DHT22;52089;51.362;-2.384;2022-10-31T02:11:01;12.90;99.90
65048;DHT22;52089;51.362;-2.384;2022-10-31T02:14:43;13.00;99.90
65048;DHT22;52089;51.362;-2.384;2022-10-31T02:18:33;13.10;99.90
65048;DHT22;52089;51.362;-2.384;2022-10-31T02:23:02;13.20;99.90
65048;DHT22;52089;51.362;-2.384;2022-10-31T02:36:24;13.40;99.90
65048;DHT22;52089;51.362;-2.384;2022-10-31T02:39:46;13.30;99.90
65048;DHT22;52089;51.362;-2.384;2022-10-31T02:47:17;13.30;99.90
65048;DHT22;52089;51.362;-2.384;2022-10-31T02:51:01;13.30;99.90
65048;DHT22;52089;51.362;-2.384;2022-10-31T02:54:46;13.30;99.90
65048;DHT22;52089;51.362;-2.384;2022-10-31T02:58:31;13.30;99.90
65048;DHT22;52089;51.362;-2.384;2022-10-31T03:06:50;13.30;99.90
65048;DHT22;52089;51.362;-2.384;2022-10-31T03:15:22;13.30;99.90
65048;DHT22;52089;51.362;-2.384;2022-10-31T03:19:11;13.30;99.90
65048;DHT22;52089;51.362;-2.384;2022-10-31T03:22:56;13.20;99.90
65048;DHT22;52089;51.362;-2.384;2022-10-31T03:26:43;13.20;99.90
65048;DHT22;52089;51.362;-2.384;2022-10-31T03:30:29;13.20;99.90
65048;DHT22;52089;51.362;-2.384;2022-10-31T03:34:13;13.20;99.90
65048;DHT22;52089;51.362;-2.384;2022-10-31T03:37:59;13.20;99.90
65048;DHT22;52089;51.362;-2.384;2022-10-31T03:42:00;13.30;99.90
65048;DHT22;52089;51.362;-2.384;2022-10-31T03:45:45;13.20;99.90
65048;DHT22;52089;51.362;-2.384;2022-10-31T03:49:28;13.20;99.90
65048;DHT22;52089;51.362;-2.384;2022-10-31T03:53:16;13.20;99.90
65048;DHT22;52089;51.362;-2.384;2022-10-31T03:57:09;13.20;99.90
65048;DHT22;52089;51.362;-2.384;2022-10-31T04:00:55;13.20;99.90
65048;DHT22;52089;51.362;-2.384;2022-10-31T04:04:39;13.20;99.90
65048;DHT22;52089;51.362;-2.384;2022-10-31T04:08:25;13.10;99.90
65048;DHT22;52089;51.362;-2.384;2022-10-31T04:12:08;13.10;99.90
65048;DHT22;52089;51.362;-2.384;2022-10-31T04:15:54;13.00;99.90
65048;DHT22;52089;51.362;-2.384;2022-10-31T04:19:36;13.00;99.90
65048;DHT22;52089;51.362;-2.384;2022-10-31T04:23:20;13.10;99.90
65048;DHT22;52089;51.362;-2.384;2022-10-31T04:27:03;13.20;99.90
65048;DHT22;52089;51.362;-2.384;2022-10-31T04:30:46;13.20;99.90
65048;DHT22;52089;51.362;-2.384;2022-10-31T04:34:28;13.30;99.90
65048;DHT22;52089;51.362;-2.384;2022-10-31T04:38:10;13.30;99.90
65048;DHT22;52089;51.362;-2.384;2022-10-31T04:41:52;13.30;99.90
65048;DHT22;52089;51.362;-2.384;2022-10-31T04:45:34;13.30;99.90
65048;DHT22;52089;51.362;-2.384;2022-10-31T04:49:15;13.40;99.90
65048;DHT22;52089;51.362;-2.384;2022-10-31T04:52:57;13.40;99.90
65048;DHT22;52089;51.362;-2.384;2022-10-31T04:56:39;13.30;99.90
65048;DHT22;52089;51.362;-2.384;2022-10-31T05:00:21;13.30;99.90
65048;DHT22;52089;51.362;-2.384;2022-10-31T05:04:03;13.30;99.90
65048;DHT22;52089;51.362;-2.384;2022-10-31T05:07:46;13.30;99.90
65048;DHT22;52089;51.362;-2.384;2022-10-31T05:11:28;13.30;99.90
65048;DHT22;52089;51.362;-2.384;2022-10-31T05:15:10;13.40;99.90
65048;DHT22;52089;51.362;-2.384;2022-10-31T05:18:52;13.40;99.90
65048;DHT22;52089;51.362;-2.384;2022-10-31T05:22:33;13.40;99.90
65048;DHT22;52089;51.362;-2.384;2022-10-31T05:26:15;13.40;99.90
65048;DHT22;52089;51.362;-2.384;2022-10-31T05:29:57;13.40;99.90
65048;DHT22;52089;51.362;-2.384;2022-10-31T05:33:44;13.30;99.90
65048;DHT22;52089;51.362;-2.384;2022-10-31T05:37:26;13.30;99.90
65048;DHT22;52089;51.362;-2.384;2022-10-31T05:41:07;13.30;99.90
65048;DHT22;52089;51.362;-2.384;2022-10-31T05:44:49;13.20;99.90
65048;DHT22;52089;51.362;-2.384;2022-10-31T05:48:31;13.10;99.90
65048;DHT22;52089;51.362;-2.384;2022-10-31T05:52:12;13.10;99.90
65048;DHT22;52089;51.362;-2.384;2022-10-31T05:55:54;13.00;99.90
65048;DHT22;52089;51.362;-2.384;2022-10-31T05:59:36;13.00;99.90
65048;DHT22;52089;51.362;-2.384;2022-10-31T06:03:18;13.00;99.90
65048;DHT22;52089;51.362;-2.384;2022-10-31T06:07:00;13.00;99.90
65048;DHT22;52089;51.362;-2.384;2022-10-31T06:10:41;13.00;99.90
65048;DHT22;52089;51.362;-2.384;2022-10-31T06:14:23;13.00;99.90
65048;DHT22;52089;51.362;-2.384;2022-10-31T06:18:05;13.00;99.90
65048;DHT22;52089;51.362;-2.384;2022-10-31T06:21:47;13.00;99.90
65048;DHT22;52089;51.362;-2.384;2022-10-31T06:25:29;12.90;99.90
65048;DHT22;52089;51.362;-2.384;2022-10-31T06:29:11;12.90;99.90
65048;DHT22;52089;51.362;-2.384;2022-10-31T06:32:52;12.90;99.90
65048;DHT22;52089;51.362;-2.384;2022-10-31T06:36:34;13.00;99.90
65048;DHT22;52089;51.362;-2.384;2022-10-31T06:40:16;13.00;99.90
65048;DHT22;52089;51.362;-2.384;2022-10-31T06:43:58;13.10;99.90
65048;DHT22;52089;51.362;-2.384;2022-10-31T06:47:51;13.10;99.90
65048;DHT22;52089;51.362;-2.384;2022-10-31T06:51:54;13.10;99.90
65048;DHT22;52089;51.362;-2.384;2022-10-31T06:55:35;13.10;99.90
65048;DHT22;52089;51.362;-2.384;2022-10-31T06:59:17;13.20;99.90
65048;DHT22;52089;51.362;-2.384;2022-10-31T07:03:01;13.10;99.90
65048;DHT22;52089;51.362;-2.384;2022-10-31T07:06:44;13.10;99.90
65048;DHT22;52089;51.362;-2.384;2022-10-31T07:10:34;13.20;99.90
65048;DHT22;52089;51.362;-2.384;2022-10-31T07:14:21;13.10;99.90
65048;DHT22;52089;51.362;-2.384;2022-10-31T07:18:04;13.10;99.90
65048;DHT22;52089;51.362;-2.384;2022-10-31T07:21:46;13.00;99.90
65048;DHT22;52089;51.362;-2.384;2022-10-31T07:25:28;13.00;99.90
65048;DHT22;52089;51.362;-2.384;2022-10-31T07:29:09;12.90;99.90
65048;DHT22;52089;51.362;-2.384;2022-10-31T07:32:51;12.90;99.90
65048;DHT22;52089;51.362;-2.384;2022-10-31T07:36:33;12.90;99.90
65048;DHT22;52089;51.362;-2.384;2022-10-31T07:40:15;12.90;99.90
65048;DHT22;52089;51.362;-2.384;2022-10-31T07:43:57;12.90;99.90
65048;DHT22;52089;51.362;-2.384;2022-10-31T07:47:47;13.00;99.90
65048;DHT22;52089;51.362;-2.384;2022-10-31T07:51:29;13.20;99.90
65048;DHT22;52089;51.362;-2.384;2022-10-31T07:55:12;13.40;99.90
65048;DHT22;52089;51.362;-2.384;2022-10-31T07:58:54;13.50;99.90
65048;DHT22;52089;51.362;-2.384;2022-10-31T08:02:36;13.70;99.90
65048;DHT22;52089;51.362;-2.384;2022-10-31T08:06:17;13.90;99.90
65048;DHT22;52089;51.362;-2.384;2022-10-31T08:09:59;14.10;99.90
65048;DHT22;52089;51.362;-2.384;2022-10-31T08:13:41;14.30;99.90
65048;DHT22;52089;51.362;-2.384;2022-10-31T08:17:24;14.40;99.90
65048;DHT22;52089;51.362;-2.384;2022-10-31T08:21:06;14.40;99.90
65048;DHT22;52089;51.362;-2.384;2022-10-31T08:24:48;14.50;99.90
65048;DHT22;52089;51.362;-2.384;2022-10-31T08:28:29;14.70;99.90
65048;DHT22;52089;51.362;-2.384;2022-10-31T08:32:11;14.80;99.90
65048;DHT22;52089;51.362;-2.384;2022-10-31T08:35:53;14.80;99.90
65048;DHT22;52089;51.362;-2.384;2022-10-31T08:39:35;14.80;99.90
65048;DHT22;52089;51.362;-2.384;2022-10-31T08:43:17;14.70;99.90
65048;DHT22;52089;51.362;-2.384;2022-10-31T08:47:00;14.70;99.90
65048;DHT22;52089;51.362;-2.384;2022-10-31T08:50:43;14.70;99.90
65048;DHT22;52089;51.362;-2.384;2022-10-31T08:54:25;14.70;99.90
65048;DHT22;52089;51.362;-2.384;2022-10-31T08:58:11;14.80;99.90
65048;DHT22;52089;51.362;-2.384;2022-10-31T09:01:53;14.70;99.90
65048;DHT22;52089;51.362;-2.384;2022-10-31T09:05:35;14.70;99.90
65048;DHT22;52089;51.362;-2.384;2022-10-31T09:09:17;14.80;99.90
65048;DHT22;52089;51.362;-2.384;2022-10-31T09:13:00;14.80;99.90
65048;DHT22;52089;51.362;-2.384;2022-10-31T09:16:42;14.90;99.90
65048;DHT22;52089;51.362;-2.384;2022-10-31T09:20:24;14.90;99.90
65048;DHT22;52089;51.362;-2.384;2022-10-31T09:24:06;14.90;99.90
65048;DHT22;52089;51.362;-2.384;2022-10-31T09:27:48;14.90;99.90
65048;DHT22;52089;51.362;-2.384;2022-10-31T09:31:30;14.90;99.90
65048;DHT22;52089;51.362;-2.384;2022-10-31T09:35:11;15.00;99.90
65048;DHT22;52089;51.362;-2.384;2022-10-31T09:38:58;15.00;99.90
65048;DHT22;52089;51.362;-2.384;2022-10-31T09:42:47;15.00;99.90
65048;DHT22;52089;51.362;-2.384;2022-10-31T09:50:36;14.90;99.90
65048;DHT22;52089;51.362;-2.384;2022-10-31T09:54:38;14.90;99.90
65048;DHT22;52089;51.362;-2.384;2022-10-31T09:58:28;15.00;99.90
65048;DHT22;52089;51.362;-2.384;2022-10-31T10:06:24;15.00;99.90
65048;DHT22;52089;51.362;-2.384;2022-10-31T10:10:45;15.20;99.90
65048;DHT22;52089;51.362;-2.384;2022-10-31T10:22:52;15.50;99.90
65048;DHT22;52089;51.362;-2.384;2022-10-31T10:26:38;15.50;99.90
65048;DHT22;52089;51.362;-2.384;2022-10-31T10:30:25;15.60;99.90
65048;DHT22;52089;51.362;-2.384;2022-10-31T10:42:12;15.80;99.90
65048;DHT22;52089;51.362;-2.384;2022-10-31T10:46:31;16.00;99.90
65048;DHT22;52089;51.362;-2.384;2022-10-31T10:50:38;16.20;99.90
65048;DHT22;52089;51.362;-2.384;2022-10-31T10:58:07;17.00;99.90
65048;DHT22;52089;51.362;-2.384;2022-10-31T11:01:51;17.00;99.90
65048;DHT22;52089;51.362;-2.384;2022-10-31T11:05:53;17.10;99.90
65048;DHT22;52089;51.362;-2.384;2022-10-31T11:09:36;17.30;99.90
65048;DHT22;52089;51.362;-2.384;2022-10-31T11:13:22;18.00;99.90
65048;DHT22;52089;51.362;-2.384;2022-10-31T11:17:17;18.60;99.90
65048;DHT22;52089;51.362;-2.384;2022-10-31T11:21:01;19.20;99.90
65048;DHT22;52089;51.362;-2.384;2022-10-31T11:24:45;19.30;99.90
65048;DHT22;52089;51.362;-2.384;2022-10-31T11:28:28;19.70;99.90
65048;DHT22;52089;51.362;-2.384;2022-10-31T11:32:25;19.90;99.90
65048;DHT22;52089;51.362;-2.384;2022-10-31T11:36:29;19.50;99.90
65048;DHT22;52089;51.362;-2.384;2022-10-31T11:40:16;19.00;99.90
65048;DHT22;52089;51.362;-2.384;2022-10-31T11:44:15;18.50;99.90
65048;DHT22;52089;51.362;-2.384;2022-10-31T11:47:58;18.00;99.90
65048;DHT22;52089;51.362;-2.384;2022-10-31T11:51:46;17.70;99.90
65048;DHT22;52089;51.362;-2.384;2022-10-31T11:55:34;17.70;99.90
65048;DHT22;52089;51.362;-2.384;2022-10-31T11:59:26;17.50;99.90
65048;DHT22;52089;51.362;-2.384;2022-10-31T12:07:14;17.40;99.90
65048;DHT22;52089;51.362;-2.384;2022-10-31T12:15:20;17.50;99.90
65048;DHT22;52089;51.362;-2.384;2022-10-31T12:27:29;18.40;99.90
65048;DHT22;52089;51.362;-2.384;2022-10-31T12:31:34;19.90;99.90
65048;DHT22;52089;51.362;-2.384;2022-10-31T12:39:43;21.10;97.60
65048;DHT22;52089;51.362;-2.384;2022-10-31T12:51:24;21.30;99.90
65048;DHT22;52089;51.362;-2.384;2022-10-31T13:03:04;22.40;99.90
65048;DHT22;52089;51.362;-2.384;2022-10-31T13:06:54;22.30;99.90
65048;DHT22;52089;51.362;-2.384;2022-10-31T13:14:47;21.40;99.90
65048;DHT22;52089;51.362;-2.384;2022-10-31T13:18:54;20.70;99.90
65048;DHT22;52089;51.362;-2.384;2022-10-31T13:22:37;20.20;99.90
65048;DHT22;52089;51.362;-2.384;2022-10-31T13:26:43;19.70;99.90
65048;DHT22;52089;51.362;-2.384;2022-10-31T13:30:32;19.30;99.90
65048;DHT22;52089;51.362;-2.384;2022-10-31T13:34:38;19.10;99.90
65048;DHT22;52089;51.362;-2.384;2022-10-31T13:42:25;19.50;99.90
65048;DHT22;52089;51.362;-2.384;2022-10-31T13:46:23;19.60;99.90
65048;DHT22;52089;51.362;-2.384;2022-10-31T13:50:20;19.50;99.90
65048;DHT22;52089;51.362;-2.384;2022-10-31T13:54:19;19.40;99.90
65048;DHT22;52089;51.362;-2.384;2022-10-31T13:58:26;19.10;99.90
65048;DHT22;52089;51.362;-2.384;2022-10-31T14:02:17;18.90;99.90
65048;DHT22;52089;51.362;-2.384;2022-10-31T14:06:00;18.70;99.90
65048;DHT22;52089;51.362;-2.384;2022-10-31T14:10:07;18.50;99.90
65048;DHT22;52089;51.362;-2.384;2022-10-31T14:14:01;18.30;99.90
65048;DHT22;52089;51.362;-2.384;2022-10-31T14:17:54;18.00;99.90
65048;DHT22;52089;51.362;-2.384;2022-10-31T14:21:40;17.80;99.90
65048;DHT22;52089;51.362;-2.384;2022-10-31T14:25:34;17.60;99.90
65048;DHT22;52089;51.362;-2.384;2022-10-31T14:33:01;17.30;99.90
65048;DHT22;52089;51.362;-2.384;2022-10-31T14:37:00;17.10;99.90
65048;DHT22;52089;51.362;-2.384;2022-10-31T14:44:51;16.90;99.90
65048;DHT22;52089;51.362;-2.384;2022-10-31T14:52:19;16.50;99.90
65048;DHT22;52089;51.362;-2.384;2022-10-31T14:56:02;16.40;99.90
65048;DHT22;52089;51.362;-2.384;2022-10-31T15:00:12;16.30;99.90
65048;DHT22;52089;51.362;-2.384;2022-10-31T15:04:23;15.90;99.90
65048;DHT22;52089;51.362;-2.384;2022-10-31T15:08:13;15.50;99.90
65048;DHT22;52089;51.362;-2.384;2022-10-31T15:12:01;15.20;99.90
65048;DHT22;52089;51.362;-2.384;2022-10-31T15:15:58;14.90;99.90
65048;DHT22;52089;51.362;-2.384;2022-10-31T15:19:42;14.70;99.90
65048;DHT22;52089;51.362;-2.384;2022-10-31T15:23:26;14.50;99.90
65048;DHT22;52089;51.362;-2.384;2022-10-31T15:27:15;14.40;99.90
65048;DHT22;52089;51.362;-2.384;2022-10-31T15:31:01;14.30;99.90
65048;DHT22;52089;51.362;-2.384;2022-10-31T15:34:44;14.20;99.90
65048;DHT22;52089;51.362;-2.384;2022-10-31T15:38:27;14.20;99.90
65048;DHT22;52089;51.362;-2.384;2022-10-31T15:42:34;14.20;99.90
65048;DHT22;52089;51.362;-2.384;2022-10-31T15:46:17;14.20;99.90
65048;DHT22;52089;51.362;-2.384;2022-10-31T15:50:00;14.20;99.90
65048;DHT22;52089;51.362;-2.384;2022-10-31T15:53:51;14.10;99.90
65048;DHT22;52089;51.362;-2.384;2022-10-31T15:57:33;14.10;99.90
65048;DHT22;52089;51.362;-2.384;2022-10-31T16:05:17;14.10;99.90
65048;DHT22;52089;51.362;-2.384;2022-10-31T16:08:59;14.10;99.90
65048;DHT22;52089;51.362;-2.384;2022-10-31T16:12:45;14.10;99.90
65048;DHT22;52089;51.362;-2.384;2022-10-31T16:16:28;14.00;99.90
65048;DHT22;52089;51.362;-2.384;2022-10-31T16:20:22;14.00;99.90
65048;DHT22;52089;51.362;-2.384;2022-10-31T16:24:19;14.00;99.90
65048;DHT22;52089;51.362;-2.384;2022-10-31T16:28:05;14.00;99.90
65048;DHT22;52089;51.362;-2.384;2022-10-31T16:31:54;14.00;99.90
65048;DHT22;52089;51.362;-2.384;2022-10-31T16:35:38;14.00;99.90
65048;DHT22;52089;51.362;-2.384;2022-10-31T16:39:20;13.90;99.90
65048;DHT22;52089;51.362;-2.384;2022-10-31T16:43:02;13.90;99.90
65048;DHT22;52089;51.362;-2.384;2022-10-31T16:46:44;13.90;99.90
65048;DHT22;52089;51.362;-2.384;2022-10-31T16:50:27;13.80;99.90
65048;DHT22;52089;51.362;-2.384;2022-10-31T16:54:09;13.80;99.90
65048;DHT22;52089;51.362;-2.384;2022-10-31T16:57:55;13.90;99.90
65048;DHT22;52089;51.362;-2.384;2022-10-31T17:01:39;13.80;99.90
65048;DHT22;52089;51.362;-2.384;2022-10-31T17:05:23;13.80;99.90
65048;DHT22;52089;51.362;-2.384;2022-10-31T17:09:11;13.80;99.90
65048;DHT22;52089;51.362;-2.384;2022-10-31T17:12:53;13.80;99.90
65048;DHT22;52089;51.362;-2.384;2022-10-31T17:16:36;13.80;99.90
65048;DHT22;52089;51.362;-2.384;2022-10-31T17:20:26;13.70;99.90
65048;DHT22;52089;51.362;-2.384;2022-10-31T17:24:13;13.70;99.90
65048;DHT22;52089;51.362;-2.384;2022-10-31T17:27:55;13.60;99.90
65048;DHT22;52089;51.362;-2.384;2022-10-31T17:31:37;13.60;99.90
65048;DHT22;52089;51.362;-2.384;2022-10-31T17:35:20;13.60;99.90
65048;DHT22;52089;51.362;-2.384;2022-10-31T17:39:03;13.60;99.90
65048;DHT22;52089;51.362;-2.384;2022-10-31T17:42:55;13.60;99.90
65048;DHT22;52089;51.362;-2.384;2022-10-31T17:46:37;13.60;99.90
65048;DHT22;52089;51.362;-2.384;2022-10-31T17:50:22;13.60;99.90
65048;DHT22;52089;51.362;-2.384;2022-10-31T17:54:04;13.70;99.90
65048;DHT22;52089;51.362;-2.384;2022-10-31T17:57:50;13.70;99.90
65048;DHT22;52089;51.362;-2.384;2022-10-31T18:01:32;13.70;99.90
65048;DHT22;52089;51.362;-2.384;2022-10-31T18:05:14;13.70;99.90
65048;DHT22;52089;51.362;-2.384;2022-10-31T18:08:56;13.70;99.90
65048;DHT22;52089;51.362;-2.384;2022-10-31T18:12:38;13.60;99.90
65048;DHT22;52089;51.362;-2.384;2022-10-31T18:16:20;13.70;99.90
65048;DHT22;52089;51.362;-2.384;2022-10-31T18:20:02;13.70;99.90
65048;DHT22;52089;51.362;-2.384;2022-10-31T18:23:44;13.70;99.90
65048;DHT22;52089;51.362;-2.384;2022-10-31T18:27:26;13.70;99.90
65048;DHT22;52089;51.362;-2.384;2022-10-31T18:31:08;13.80;99.90
65048;DHT22;52089;51.362;-2.384;2022-10-31T18:34:49;13.70;99.90
65048;DHT22;52089;51.362;-2.384;2022-10-31T18:38:32;13.70;99.90
65048;DHT22;52089;51.362;-2.384;2022-10-31T18:42:14;13.70;99.90
65048;DHT22;52089;51.362;-2.384;2022-10-31T18:46:03;13.80;99.90
65048;DHT22;52089;51.362;-2.384;2022-10-31T18:49:45;13.80;99.90
65048;DHT22;52089;51.362;-2.384;2022-10-31T18:53:27;13.90;99.90
65048;DHT22;52089;51.362;-2.384;2022-10-31T18:57:09;13.90;99.90
65048;DHT22;52089;51.362;-2.384;2022-10-31T19:00:51;13.90;99.90
65048;DHT22;52089;51.362;-2.384;2022-10-31T19:04:33;13.90;99.90
65048;DHT22;52089;51.362;-2.384;2022-10-31T19:08:15;14.00;99.90
65048;DHT22;52089;51.362;-2.384;2022-10-31T19:11:57;14.00;99.90
65048;DHT22;52089;51.362;-2.384;2022-10-31T19:15:39;14.00;99.90
65048;DHT22;52089;51.362;-2.384;2022-10-31T19:19:20;14.10;99.90
65048;DHT22;52089;51.362;-2.384;2022-10-31T19:23:02;14.10;99.90
65048;DHT22;52089;51.362;-2.384;2022-10-31T19:26:44;14.10;99.90
65048;DHT22;52089;51.362;-2.384;2022-10-31T19:30:27;14.10;99.90
65048;DHT22;52089;51.362;-2.384;2022-10-31T19:34:09;14.20;99.90
65048;DHT22;52089;51.362;-2.384;2022-10-31T19:37:51;14.20;99.90
65048;DHT22;52089;51.362;-2.384;2022-10-31T19:41:33;14.20;99.90
65048;DHT22;52089;51.362;-2.384;2022-10-31T19:45:15;14.20;99.90
65048;DHT22;52089;51.362;-2.384;2022-10-31T19:48:58;14.10;99.90
65048;DHT22;52089;51.362;-2.384;2022-10-31T19:52:42;14.10;99.90
65048;DHT22;52089;51.362;-2.384;2022-10-31T19:56:24;14.10;99.90
65048;DHT22;52089;51.362;-2.384;2022-10-31T20:00:07;14.10;99.90
65048;DHT22;52089;51.362;-2.384;2022-10-31T20:03:49;14.10;99.90
65048;DHT22;52089;51.362;-2.384;2022-10-31T20:07:31;14.10;99.90
65048;DHT22;52089;51.362;-2.384;2022-10-31T20:11:13;14.10;99.90
65048;DHT22;52089;51.362;-2.384;2022-10-31T20:14:55;14.20;99.90
65048;DHT22;52089;51.362;-2.384;2022-10-31T20:18:38;14.20;99.90
65048;DHT22;52089;51.362;-2.384;2022-10-31T20:22:20;14.20;99.90
65048;DHT22;52089;51.362;-2.384;2022-10-31T20:26:02;14.20;99.90
65048;DHT22;52089;51.362;-2.384;2022-10-31T20:29:44;14.10;99.90
65048;DHT22;52089;51.362;-2.384;2022-10-31T20:33:26;14.10;99.90
65048;DHT22;52089;51.362;-2.384;2022-10-31T20:37:08;14.10;99.90
65048;DHT22;52089;51.362;-2.384;2022-10-31T20:40:49;14.10;99.90
65048;DHT22;52089;51.362;-2.384;2022-10-31T20:44:31;14.10;99.90
65048;DHT22;52089;51.362;-2.384;2022-10-31T20:48:13;14.10;99.90
65048;DHT22;52089;51.362;-2.384;2022-10-31T20:51:55;14.10;99.90
65048;DHT22;52089;51.362;-2.384;2022-10-31T20:55:37;14.10;99.90
65048;DHT22;52089;51.362;-2.384;2022-10-31T20:59:18;14.00;99.90
65048;DHT22;52089;51.362;-2.384;2022-10-31T21:03:00;14.00;99.90
65048;DHT22;52089;51.362;-2.384;2022-10-31T21:06:42;14.00;99.90
65048;DHT22;52089;51.362;-2.384;2022-10-31T21:10:30;14.00;99.90
65048;DHT22;52089;51.362;-2.384;2022-10-31T21:14:11;14.00;99.90
65048;DHT22;52089;51.362;-2.384;2022-10-31T21:17:54;14.00;99.90
65048;DHT22;52089;51.362;-2.384;2022-10-31T21:21:36;13.90;99.90
65048;DHT22;52089;51.362;-2.384;2022-10-31T21:25:18;13.70;99.90
65048;DHT22;52089;51.362;-2.384;2022-10-31T21:29:00;13.60;99.90
65048;DHT22;52089;51.362;-2.384;2022-10-31T21:32:42;13.40;99.90
65048;DHT22;52089;51.362;-2.384;2022-10-31T21:36:24;13.30;99.90
65048;DHT22;52089;51.362;-2.384;2022-10-31T21:40:07;13.20;99.90
65048;DHT22;52089;51.362;-2.384;2022-10-31T21:43:50;13.10;99.90
65048;DHT22;52089;51.362;-2.384;2022-10-31T21:47:34;13.00;99.90
65048;DHT22;52089;51.362;-2.384;2022-10-31T21:51:17;13.00;99.90
65048;DHT22;52089;51.362;-2.384;2022-10-31T21:54:59;12.90;99.90
65048;DHT22;52089;51.362;-2.384;2022-10-31T21:58:41;12.90;99.90
65048;DHT22;52089;51.362;-2.384;2022-10-31T22:02:23;12.80;99.90
65048;DHT22;52089;51.362;-2.384;2022-10-31T22:06:06;12.70;99.90
65048;DHT22;52089;51.362;-2.384;2022-10-31T22:09:48;12.70;99.90
65048;DHT22;52089;51.362;-2.384;2022-10-31T22:13:31;12.70;99.90
65048;DHT22;52089;51.362;-2.384;2022-10-31T22:17:13;12.70;99.90
65048;DHT22;52089;51.362;-2.384;2022-10-31T22:21:09;12.70;99.90
65048;DHT22;52089;51.362;-2.384;2022-10-31T22:24:51;12.70;99.90
65048;DHT22;52089;51.362;-2.384;2022-10-31T22:28:34;12.70;99.90
65048;DHT22;52089;51.362;-2.384;2022-10-31T22:32:16;12.60;99.90
65048;DHT22;52089;51.362;-2.384;2022-10-31T22:36:06;12.60;99.90
65048;DHT22;52089;51.362;-2.384;2022-10-31T22:39:48;12.50;99.90
65048;DHT22;52089;51.362;-2.384;2022-10-31T22:43:30;12.40;99.90
65048;DHT22;52089;51.362;-2.384;2022-10-31T22:47:12;12.30;99.90
65048;DHT22;52089;51.362;-2.384;2022-10-31T22:50:53;12.20;99.90
65048;DHT22;52089;51.362;-2.384;2022-10-31T22:54:35;12.00;99.90
65048;DHT22;52089;51.362;-2.384;2022-10-31T22:58:17;11.90;99.90
65048;DHT22;52089;51.362;-2.384;2022-10-31T23:01:59;11.80;99.90
65048;DHT22;52089;51.362;-2.384;2022-10-31T23:05:41;11.80;99.90
65048;DHT22;52089;51.362;-2.384;2022-10-31T23:09:22;11.70;99.90
65048;DHT22;52089;51.362;-2.384;2022-10-31T23:13:04;11.50;99.90
65048;DHT22;52089;51.362;-2.384;2022-10-31T23:17:04;11.40;99.90
65048;DHT22;52089;51.362;-2.384;2022-10-31T23:20:53;11.40;99.90
65048;DHT22;52089;51.362;-2.384;2022-10-31T23:28:19;11.40;99.90
65048;DHT22;52089;51.362;-2.384;2022-10-31T23:32:02;11.40;99.90
65048;DHT22;52089;51.362;-2.384;2022-10-31T23:35:44;11.50;99.90
65048;DHT22;52089;51.362;-2.384;2022-10-31T23:39:26;11.50;99.90
65048;DHT22;52089;51.362;-2.384;2022-10-31T23:43:08;11.50;99.90
65048;DHT22;52089;51.362;-2.384;2022-10-31T23:46:50;11.50;99.90
65048;DHT22;52089;51.362;-2.384;2022-10-31T23:50:32;11.60;99.90
65048;DHT22;52089;51.362;-2.384;2022-10-31T23:54:13;11.60;99.90
65048;DHT22;52089;51.362;-2.384;2022-10-31T23:57:55;11.60;99.90
